createdAt,value
2022-10-16T00:03:51.749Z,4.50
2022-10-16T00:07:53.169Z,2.85
2022-10-16T00:16:01.765Z,2.75
2022-10-16T00:20:04.153Z,2.90
2022-10-16T00:24:09.308Z,2.70
2022-10-16T00:28:10.725Z,2.45
2022-10-16T00:32:12.101Z,3.05
2022-10-16T00:36:18.176Z,4.53
2022-10-16T00:40:19.550Z,4.70
2022-10-16T00:44:44.887Z,2.40
2022-10-16T00:48:53.402Z,2.80
2022-10-16T00:52:56.072Z,2.75
2022-10-16T00:57:00.964Z,2.97
2022-10-16T01:01:02.485Z,3.95
2022-10-16T01:05:05.199Z,2.55
2022-10-16T01:09:21.305Z,3.67
2022-10-16T01:13:28.735Z,2.42
2022-10-16T01:17:40.275Z,3.72
2022-10-16T01:21:45.745Z,4.28
2022-10-16T01:25:57.537Z,2.22
2022-10-16T01:30:17.880Z,2.53
2022-10-16T01:34:26.069Z,2.10
2022-10-16T01:38:37.368Z,2.65
2022-10-16T01:42:43.917Z,3.05
2022-10-16T01:46:49.365Z,1.92
2022-10-16T01:50:57.953Z,2.22
2022-10-16T01:55:01.994Z,3.27
2022-10-16T01:59:08.196Z,4.82
2022-10-16T02:03:11.877Z,3.47
2022-10-16T02:07:13.651Z,3.47
2022-10-16T02:11:15.061Z,2.65
2022-10-16T02:15:16.455Z,2.60
2022-10-16T02:19:22.678Z,2.47
2022-10-16T02:23:51.332Z,5.28
2022-10-16T02:27:56.369Z,5.70
2022-10-16T02:32:03.481Z,4.35
2022-10-16T02:36:05.650Z,2.08
2022-10-16T02:40:08.238Z,4.20
2022-10-16T02:44:09.634Z,2.17
2022-10-16T02:48:11.028Z,3.28
2022-10-16T02:52:12.424Z,2.97
2022-10-16T02:56:13.938Z,3.25
2022-10-16T03:00:17.560Z,3.15
2022-10-16T03:04:18.973Z,6.07
2022-10-16T03:08:24.433Z,4.72
2022-10-16T03:12:25.809Z,2.50
2022-10-16T03:16:27.208Z,2.20
2022-10-16T03:20:28.580Z,2.20
2022-10-16T03:24:29.990Z,3.03
2022-10-16T03:28:31.425Z,2.00
2022-10-16T03:32:33.003Z,3.35
2022-10-16T03:36:34.500Z,4.38
2022-10-16T03:40:35.910Z,2.42
2022-10-16T03:44:37.328Z,5.22
2022-10-16T03:48:38.691Z,4.65
2022-10-16T03:52:40.050Z,2.60
2022-10-16T03:56:41.425Z,4.25
2022-10-16T04:00:43.989Z,2.42
2022-10-16T04:04:45.508Z,3.22
2022-10-16T04:08:46.969Z,3.13
2022-10-16T04:12:48.416Z,3.33
2022-10-16T04:16:49.846Z,3.53
2022-10-16T04:20:51.203Z,2.20
2022-10-16T04:24:52.598Z,2.33
2022-10-16T04:28:54.926Z,2.47
2022-10-16T04:32:56.430Z,1.92
2022-10-16T04:36:57.872Z,3.58
2022-10-16T04:40:59.395Z,3.03
2022-10-16T04:45:00.796Z,3.55
2022-10-16T04:49:02.302Z,2.92
2022-10-16T04:53:03.763Z,2.65
2022-10-16T04:57:05.927Z,3.90
2022-10-16T05:01:07.466Z,6.90
2022-10-16T05:05:09.086Z,2.92
2022-10-16T05:09:11.150Z,4.55
2022-10-16T05:13:12.915Z,4.00
2022-10-16T05:17:14.381Z,2.72
2022-10-16T05:21:15.766Z,2.58
2022-10-16T05:25:17.254Z,4.57
2022-10-16T05:29:18.650Z,2.70
2022-10-16T05:33:25.476Z,3.13
2022-10-16T05:37:28.837Z,2.72
2022-10-16T05:41:30.508Z,2.92
2022-10-16T05:45:31.968Z,2.88
2022-10-16T05:49:35.692Z,3.10
2022-10-16T05:53:40.779Z,5.63
2022-10-16T05:57:42.317Z,3.08
2022-10-16T06:01:43.702Z,3.95
2022-10-16T06:05:45.064Z,2.60
2022-10-16T06:09:50.686Z,4.43
2022-10-16T06:13:53.381Z,3.58
2022-10-16T06:17:54.740Z,2.53
2022-10-16T06:21:56.226Z,2.63
2022-10-16T06:26:05.983Z,4.07
2022-10-16T06:30:08.274Z,3.28
2022-10-16T06:34:11.677Z,3.20
2022-10-16T06:38:13.037Z,4.90
2022-10-16T06:42:14.408Z,5.40
2022-10-16T06:46:18.924Z,3.03
2022-10-16T06:50:20.421Z,5.88
2022-10-16T06:54:21.799Z,2.28
2022-10-16T06:58:24.087Z,2.20
2022-10-16T07:02:25.872Z,2.95
2022-10-16T07:06:31.103Z,2.72
2022-10-16T07:10:33.362Z,3.92
2022-10-16T07:14:34.722Z,2.30
2022-10-16T07:18:37.628Z,2.28
2022-10-16T07:22:39.182Z,2.85
2022-10-16T07:26:41.456Z,3.30
2022-10-16T07:30:42.850Z,1.38
2022-10-16T07:34:44.283Z,2.55
2022-10-16T07:38:46.721Z,1.80
2022-10-16T07:42:48.176Z,1.88
2022-10-16T07:46:49.614Z,2.45
2022-10-16T07:50:51.150Z,3.35
2022-10-16T07:54:52.582Z,4.10
2022-10-16T07:58:54.132Z,2.88
2022-10-16T08:02:55.598Z,2.22
2022-10-16T08:06:57.092Z,1.63
2022-10-16T08:10:58.550Z,1.63
2022-10-16T08:15:00.052Z,1.40
2022-10-16T08:19:01.462Z,1.27
2022-10-16T08:23:03.233Z,3.53
2022-10-16T08:27:04.936Z,1.80
2022-10-16T08:31:15.131Z,2.30
2022-10-16T08:35:17.413Z,1.42
2022-10-16T08:39:18.770Z,1.60
2022-10-16T08:43:32.255Z,1.60
2022-10-16T08:47:49.642Z,3.08
2022-10-16T08:51:51.969Z,1.65
2022-10-16T08:55:54.625Z,1.17
2022-10-16T09:00:01.413Z,1.65
2022-10-16T09:04:24.681Z,1.45
2022-10-16T09:08:26.070Z,0.88
2022-10-16T09:12:49.191Z,1.63
2022-10-16T09:17:01.703Z,1.55
2022-10-16T09:21:18.576Z,1.88
2022-10-16T09:25:22.849Z,1.33
2022-10-16T09:29:26.891Z,2.17
2022-10-16T09:33:36.619Z,1.35
2022-10-16T09:37:38.152Z,1.98
2022-10-16T09:41:45.168Z,1.77
2022-10-16T09:45:57.923Z,1.85
2022-10-16T09:50:03.300Z,2.70
2022-10-16T09:54:10.418Z,1.20
2022-10-16T09:58:14.334Z,1.63
2022-10-16T10:02:18.885Z,1.25
2022-10-16T10:06:25.771Z,1.17
2022-10-16T10:10:32.906Z,1.63
2022-10-16T10:14:46.294Z,1.05
2022-10-16T10:18:47.757Z,1.02
2022-10-16T10:22:49.211Z,1.10
2022-10-16T10:27:26.918Z,1.70
2022-10-16T10:31:43.024Z,1.40
2022-10-16T10:35:55.207Z,1.17
2022-10-16T10:40:18.629Z,1.50
2022-10-16T10:44:31.570Z,2.58
2022-10-16T10:48:59.184Z,1.42
2022-10-16T10:53:25.647Z,1.55
2022-10-16T10:57:30.913Z,1.20
2022-10-16T11:01:55.610Z,0.90
2022-10-16T11:06:08.300Z,2.15
2022-10-16T11:10:22.554Z,1.83
2022-10-16T11:14:32.824Z,1.50
2022-10-16T11:18:49.801Z,3.50
2022-10-16T11:22:57.562Z,1.17
2022-10-16T11:27:05.328Z,1.02
2022-10-16T11:31:10.181Z,1.38
2022-10-16T11:35:23.478Z,0.85
2022-10-16T11:39:29.920Z,2.30
2022-10-16T11:43:43.120Z,0.50
2022-10-16T11:47:59.251Z,1.80
2022-10-16T11:52:24.135Z,0.70
2022-10-16T11:56:26.141Z,2.00
2022-10-16T12:00:45.726Z,2.08
2022-10-16T12:08:54.459Z,0.98
2022-10-16T12:12:57.496Z,8.13
2022-10-16T12:17:01.764Z,2.75
2022-10-16T12:21:08.006Z,1.13
2022-10-16T12:25:31.045Z,1.38
2022-10-16T12:29:39.831Z,0.70
2022-10-16T12:33:43.893Z,3.08
2022-10-16T12:37:45.838Z,3.58
2022-10-16T12:41:49.339Z,0.98
2022-10-16T12:46:00.803Z,3.70
2022-10-16T12:50:10.397Z,1.33
2022-10-16T12:54:19.638Z,0.55
2022-10-16T12:58:39.980Z,3.47
2022-10-16T13:03:02.298Z,1.85
2022-10-16T13:07:36.744Z,1.42
2022-10-16T13:11:56.281Z,1.60
2022-10-16T13:20:29.469Z,1.40
2022-10-16T13:24:50.497Z,0.70
2022-10-16T13:28:54.027Z,2.05
2022-10-16T13:33:03.163Z,1.75
2022-10-16T13:41:19.367Z,0.90
2022-10-16T13:45:27.826Z,0.60
2022-10-16T13:49:29.537Z,1.85
2022-10-16T13:53:34.971Z,3.95
2022-10-16T13:57:36.618Z,0.50
2022-10-16T14:01:43.746Z,1.92
2022-10-16T14:05:51.713Z,0.70
2022-10-16T14:09:54.624Z,1.60
2022-10-16T14:13:56.538Z,2.53
2022-10-16T14:17:58.925Z,1.25
2022-10-16T14:22:02.970Z,0.70
2022-10-16T14:26:10.113Z,0.68
2022-10-16T14:30:18.140Z,0.60
2022-10-16T14:34:36.596Z,1.50
2022-10-16T14:38:41.806Z,1.77
2022-10-16T14:42:45.593Z,2.58
2022-10-16T14:46:47.940Z,1.15
2022-10-16T14:50:49.355Z,3.10
2022-10-16T14:54:51.752Z,0.65
2022-10-16T14:58:53.930Z,2.58
2022-10-16T15:02:55.463Z,1.50
2022-10-16T15:06:56.947Z,1.33
2022-10-16T15:10:58.423Z,1.23
2022-10-16T15:14:59.952Z,1.38
2022-10-16T15:19:01.380Z,1.30
2022-10-16T15:23:13.854Z,1.60
2022-10-16T15:27:15.342Z,2.20
2022-10-16T15:31:16.783Z,1.00
2022-10-16T15:35:18.206Z,1.50
2022-10-16T15:39:21.010Z,1.38
2022-10-16T15:43:22.842Z,2.08
2022-10-16T15:47:24.377Z,4.68
2022-10-16T15:51:29.871Z,2.08
2022-10-16T15:55:31.382Z,2.60
2022-10-16T15:59:32.797Z,3.08
2022-10-16T16:03:34.413Z,1.40
2022-10-16T16:07:40.193Z,3.42
2022-10-16T16:11:42.134Z,2.13
2022-10-16T16:15:43.636Z,3.10
2022-10-16T16:19:46.991Z,11.40
2022-10-16T16:23:48.405Z,5.82
2022-10-16T16:27:49.849Z,4.18
2022-10-16T16:31:51.387Z,5.00
2022-10-16T16:35:57.463Z,5.30
2022-10-16T16:40:01.881Z,6.60
2022-10-16T16:44:09.636Z,6.00
2022-10-16T16:48:11.077Z,4.20
2022-10-16T16:52:12.647Z,6.97
2022-10-16T16:56:14.285Z,5.13
2022-10-16T17:00:16.076Z,4.65
2022-10-16T17:04:17.715Z,4.28
2022-10-16T17:08:19.329Z,3.38
2022-10-16T17:12:20.918Z,3.67
2022-10-16T17:16:28.098Z,4.43
2022-10-16T17:20:29.509Z,6.68
2022-10-16T17:24:30.958Z,4.13
2022-10-16T17:28:32.651Z,5.57
2022-10-16T17:32:34.650Z,5.30
2022-10-16T17:36:38.396Z,8.88
2022-10-16T17:40:40.598Z,5.55
2022-10-16T17:44:42.063Z,5.40
2022-10-16T17:48:45.817Z,7.50
2022-10-16T17:52:47.219Z,5.90
2022-10-16T17:56:48.920Z,4.97
2022-10-16T18:00:50.379Z,7.95
2022-10-16T18:04:52.017Z,4.55
2022-10-16T18:08:56.622Z,6.45
2022-10-16T18:12:58.115Z,9.52
2022-10-16T18:16:59.647Z,6.93
2022-10-16T18:21:02.911Z,5.80
2022-10-16T18:25:06.099Z,5.32
2022-10-16T18:29:08.226Z,6.03
2022-10-16T18:33:09.749Z,7.22
2022-10-16T18:37:12.545Z,6.22
2022-10-16T18:41:14.189Z,3.90
2022-10-16T18:45:16.287Z,4.75
2022-10-16T18:49:18.181Z,4.90
2022-10-16T18:53:20.471Z,4.97
2022-10-16T18:57:22.496Z,4.95
2022-10-16T19:01:25.218Z,5.30
2022-10-16T19:05:26.774Z,6.72
2022-10-16T19:09:28.597Z,4.55
2022-10-16T19:13:30.509Z,6.60
2022-10-16T19:17:32.342Z,6.00
2022-10-16T19:21:37.381Z,8.43
2022-10-16T19:25:40.018Z,7.72
2022-10-16T19:29:41.499Z,7.55
2022-10-16T19:33:43.753Z,12.05
2022-10-16T19:37:45.199Z,6.97
2022-10-16T19:41:47.665Z,7.00
2022-10-16T19:45:49.081Z,6.43
2022-10-16T19:49:50.943Z,5.07
2022-10-16T19:54:00.926Z,7.15
2022-10-16T19:58:02.364Z,7.20
2022-10-16T20:02:03.742Z,7.55
2022-10-16T20:06:06.909Z,20.20
2022-10-16T20:10:08.691Z,23.63
2022-10-16T20:14:10.054Z,19.20
2022-10-16T20:18:11.781Z,12.95
2022-10-16T20:22:13.238Z,12.82
2022-10-16T20:26:15.236Z,13.02
2022-10-16T20:30:16.730Z,16.35
2022-10-16T20:34:18.164Z,14.77
2022-10-16T20:38:19.746Z,12.73
2022-10-16T20:42:21.161Z,12.32
2022-10-16T20:46:24.721Z,12.73
2022-10-16T20:50:30.286Z,12.23
2022-10-16T20:54:31.701Z,12.77
2022-10-16T20:58:33.131Z,8.63
2022-10-16T21:02:34.541Z,10.00
2022-10-16T21:06:38.150Z,10.77
2022-10-16T21:10:39.517Z,9.32
2022-10-16T21:14:46.458Z,12.35
2022-10-16T21:18:58.246Z,9.23
2022-10-16T21:23:02.631Z,8.88
2022-10-16T21:27:04.240Z,10.82
2022-10-16T21:31:18.956Z,9.73
2022-10-16T21:35:20.407Z,9.15
2022-10-16T21:39:21.947Z,7.65
2022-10-16T21:43:23.316Z,9.20
2022-10-16T21:47:24.871Z,9.00
2022-10-16T21:51:38.029Z,10.27
2022-10-16T21:55:39.437Z,11.90
2022-10-16T21:59:40.841Z,12.82
2022-10-16T22:03:43.185Z,8.18
2022-10-16T22:07:44.593Z,9.02
2022-10-16T22:11:46.079Z,8.50
2022-10-16T22:15:53.332Z,7.97
2022-10-16T22:19:54.796Z,13.35
2022-10-16T22:23:56.408Z,8.95
2022-10-16T22:27:57.778Z,7.97
2022-10-16T22:31:59.197Z,7.70
2022-10-16T22:36:01.727Z,7.30
2022-10-16T22:40:03.183Z,6.70
2022-10-16T22:44:04.747Z,9.18
2022-10-16T22:48:06.360Z,7.80
2022-10-16T22:52:07.746Z,7.70
2022-10-16T22:56:10.873Z,6.65
2022-10-16T23:00:16.875Z,8.02
2022-10-16T23:04:18.297Z,7.93
2022-10-16T23:08:19.785Z,5.75
2022-10-16T23:12:23.364Z,7.43
2022-10-16T23:16:25.355Z,6.57
2022-10-16T23:20:26.798Z,5.78
2022-10-16T23:24:30.695Z,9.65
2022-10-16T23:28:32.302Z,9.40
2022-10-16T23:32:34.560Z,8.40
2022-10-16T23:36:35.956Z,9.18
2022-10-16T23:40:37.379Z,10.40
2022-10-16T23:44:38.791Z,10.07
2022-10-16T23:48:40.460Z,9.00
2022-10-16T23:52:41.849Z,12.32
2022-10-16T23:56:43.242Z,9.00
